createdAt,value
2019-04-22T00:00:44.839Z,6.72
2019-04-22T00:03:53.199Z,7.95
2019-04-22T00:07:18.849Z,8.18
2019-04-22T00:10:28.955Z,5.83
2019-04-22T00:13:32.384Z,6.60
2019-04-22T00:16:41.641Z,8.78
2019-04-22T00:19:47.045Z,9.43
2019-04-22T00:22:44.872Z,8.13
2019-04-22T00:25:57.246Z,6.70
2019-04-22T00:29:03.891Z,7.15
2019-04-22T00:31:59.631Z,7.85
2019-04-22T00:35:07.262Z,9.10
2019-04-22T00:38:19.116Z,10.63
2019-04-22T00:41:20.370Z,14.83
2019-04-22T00:44:25.634Z,22.48
2019-04-22T00:50:37.204Z,14.38
2019-04-22T00:53:40.182Z,12.10
2019-04-22T00:56:50.837Z,14.30
2019-04-22T00:59:54.368Z,10.50
2019-04-22T01:03:03.125Z,13.65
2019-04-22T01:06:04.585Z,7.62
2019-04-22T01:09:25.409Z,10.78
2019-04-22T01:12:16.718Z,6.92
2019-04-22T01:15:27.609Z,8.83
2019-04-22T01:18:25.065Z,8.95
2019-04-22T01:21:37.140Z,6.97
2019-04-22T01:24:32.653Z,6.90
2019-04-22T01:27:35.773Z,6.95
2019-04-22T01:30:32.943Z,9.00
2019-04-22T01:33:35.328Z,10.25
2019-04-22T01:36:55.481Z,7.92
2019-04-22T01:40:06.520Z,10.93
2019-04-22T01:43:16.846Z,8.63
2019-04-22T01:46:16.306Z,8.23
2019-04-22T01:49:25.806Z,7.35
2019-04-22T01:52:23.716Z,7.47
2019-04-22T01:55:40.321Z,10.13
2019-04-22T01:58:36.718Z,7.15
2019-04-22T02:01:48.426Z,6.58
2019-04-22T02:04:53.208Z,10.15
2019-04-22T02:07:59.523Z,6.62
2019-04-22T02:11:03.970Z,8.48
2019-04-22T02:14:11.341Z,11.43
2019-04-22T02:17:31.557Z,7.30
2019-04-22T02:20:23.221Z,7.75
2019-04-22T02:26:35.526Z,11.40
2019-04-22T02:36:08.953Z,8.08
2019-04-22T02:42:04.679Z,8.10
2019-04-22T02:48:25.406Z,8.90
2019-04-22T02:51:30.113Z,9.33
2019-04-22T03:00:40.181Z,6.83
2019-04-22T03:06:42.862Z,10.75
2019-04-22T03:09:54.845Z,9.13
2019-04-22T03:13:01.141Z,8.08
2019-04-22T03:16:21.705Z,8.35
2019-04-22T03:19:26.448Z,9.18
2019-04-22T03:22:28.048Z,9.53
2019-04-22T03:28:32.951Z,7.45
2019-04-22T03:32:19.767Z,8.63
2019-04-22T03:41:13.362Z,9.13
2019-04-22T03:44:23.528Z,10.03
2019-04-22T03:57:10.818Z,11.50
2019-04-22T03:59:41.489Z,11.50
2019-04-22T04:12:14.430Z,7.95
2019-04-22T04:15:13.614Z,10.48
2019-04-22T04:21:27.015Z,12.50
2019-04-22T04:27:49.022Z,8.90
2019-04-22T04:30:42.764Z,8.30
2019-04-22T04:33:40.640Z,11.53
2019-04-22T04:36:57.819Z,9.15
2019-04-22T04:40:00.374Z,9.90
2019-04-22T04:42:54.314Z,8.63
2019-04-22T04:46:06.385Z,10.55
2019-04-22T04:52:16.927Z,10.65
2019-04-22T04:55:25.854Z,10.03
2019-04-22T05:04:41.239Z,9.85
2019-04-22T05:07:48.500Z,7.78
2019-04-22T05:10:53.533Z,8.10
2019-04-22T05:19:56.640Z,8.35
2019-04-22T05:23:20.760Z,8.28
2019-04-22T05:26:04.275Z,9.05
2019-04-22T05:29:09.640Z,9.58
2019-04-22T05:32:30.778Z,6.80
2019-04-22T05:35:20.698Z,10.10
2019-04-22T05:38:30.795Z,7.53
2019-04-22T05:41:30.620Z,8.90
2019-04-22T05:44:36.133Z,8.48
2019-04-22T05:47:42.205Z,8.18
2019-04-22T05:50:47.231Z,8.15
2019-04-22T05:53:57.429Z,8.28
2019-04-22T05:56:53.379Z,6.65
2019-04-22T06:00:06.349Z,8.15
2019-04-22T06:03:10.473Z,8.70
2019-04-22T06:06:14.377Z,6.95
2019-04-22T06:12:20.897Z,8.58
2019-04-22T06:15:46.252Z,9.05
2019-04-22T06:18:44.539Z,9.18
2019-04-22T06:21:46.422Z,7.12
2019-04-22T06:24:49.131Z,7.80
2019-04-22T06:27:54.169Z,11.50
2019-04-22T06:31:02.622Z,9.38
2019-04-22T06:34:11.868Z,8.13
2019-04-22T06:37:13.412Z,11.38
2019-04-22T06:40:24.630Z,6.87
2019-04-22T06:43:22.415Z,8.80
2019-04-22T06:46:31.094Z,10.60
2019-04-22T06:49:35.795Z,10.32
2019-04-22T06:52:38.902Z,8.10
2019-04-22T06:55:45.616Z,8.28
2019-04-22T06:58:55.608Z,9.68
2019-04-22T07:05:02.185Z,12.50
2019-04-22T07:08:30.402Z,7.33
2019-04-22T07:11:18.501Z,7.72
2019-04-22T07:14:22.834Z,12.73
2019-04-22T07:20:48.935Z,7.55
2019-04-22T07:23:55.558Z,9.20
2019-04-22T07:27:00.506Z,8.43
2019-04-22T07:30:03.931Z,8.40
2019-04-22T07:36:30.675Z,9.35
2019-04-22T07:39:15.697Z,8.30
2019-04-22T07:42:28.192Z,6.47
2019-04-22T07:45:29.656Z,7.40
2019-04-22T07:48:37.647Z,10.20
2019-04-22T07:51:36.371Z,5.25
2019-04-22T07:54:46.789Z,10.45
2019-04-22T07:58:05.275Z,10.15
2019-04-22T08:00:55.354Z,4.92
2019-04-22T08:07:14.683Z,4.03
2019-04-22T08:10:23.814Z,5.33
2019-04-22T08:13:24.765Z,7.58
2019-04-22T08:16:28.526Z,4.95
2019-04-22T08:19:40.473Z,5.05
2019-04-22T08:22:43.035Z,7.65
2019-04-22T08:25:45.045Z,6.30
2019-04-22T08:28:54.587Z,6.12
2019-04-22T08:31:57.998Z,10.20
2019-04-22T08:35:04.494Z,5.72
2019-04-22T08:38:11.405Z,5.70
2019-04-22T08:41:28.949Z,9.65
2019-04-22T08:44:49.695Z,5.17
2019-04-22T08:50:38.808Z,6.90
2019-04-22T08:53:49.963Z,5.35
2019-04-22T08:56:45.725Z,6.80
2019-04-22T09:00:00.564Z,11.18
2019-04-22T09:03:00.607Z,5.92
2019-04-22T09:06:15.291Z,5.92
2019-04-22T09:15:26.372Z,8.53
2019-04-22T09:18:29.815Z,8.15
2019-04-22T09:21:34.389Z,5.45
2019-04-22T09:24:35.799Z,6.17
2019-04-22T09:27:47.904Z,5.45
2019-04-22T09:33:49.639Z,5.55
2019-04-22T09:37:07.812Z,10.10
2019-04-22T09:43:13.400Z,5.85
2019-04-22T09:46:16.655Z,7.00
2019-04-22T09:49:26.663Z,6.97
2019-04-22T09:52:30.817Z,5.40
2019-04-22T09:55:37.081Z,9.65
2019-04-22T09:58:44.625Z,8.48
2019-04-22T10:02:02.449Z,6.80
2019-04-22T10:05:00.078Z,7.03
2019-04-22T10:07:59.470Z,7.83
2019-04-22T10:11:04.316Z,10.38
2019-04-22T10:14:16.954Z,8.65
2019-04-22T10:17:13.902Z,5.17
2019-04-22T10:20:25.330Z,9.20
2019-04-22T10:23:26.509Z,7.00
2019-04-22T10:26:33.454Z,7.78
2019-04-22T10:29:47.373Z,8.18
2019-04-22T10:32:46.293Z,5.75
2019-04-22T10:35:30.672Z,14.07
2019-04-22T10:38:34.613Z,5.03
2019-04-22T10:41:38.929Z,12.18
2019-04-22T10:44:45.149Z,4.97
2019-04-22T10:47:54.267Z,5.60
2019-04-22T10:50:58.904Z,11.10
2019-04-22T10:54:02.776Z,4.55
2019-04-22T10:57:06.722Z,4.85
2019-04-22T11:00:13.435Z,8.95
2019-04-22T11:03:18.224Z,8.05
2019-04-22T11:06:23.164Z,8.05
2019-04-22T11:09:27.078Z,9.18
2019-04-22T11:12:34.097Z,7.10
2019-04-22T11:15:37.091Z,8.95
2019-04-22T11:18:41.266Z,5.55
2019-04-22T11:21:57.912Z,8.40
2019-04-22T11:24:50.858Z,7.60
2019-04-22T11:27:57.700Z,7.53
2019-04-22T11:31:02.649Z,10.13
2019-04-22T11:34:08.896Z,8.05
2019-04-22T11:37:12.674Z,6.20
2019-04-22T11:40:25.372Z,6.47
2019-04-22T11:43:24.203Z,7.67
2019-04-22T11:46:29.371Z,5.47
2019-04-22T11:49:36.117Z,5.15
2019-04-22T11:52:40.601Z,8.73
2019-04-22T11:55:44.755Z,8.03
2019-04-22T11:58:48.846Z,5.62
2019-04-22T12:01:53.001Z,4.50
2019-04-22T12:04:58.080Z,8.23
2019-04-22T12:08:02.979Z,5.67
2019-04-22T12:11:07.995Z,2.85
2019-04-22T12:14:13.945Z,8.15
2019-04-22T12:17:18.091Z,5.83
2019-04-22T12:20:23.408Z,8.05
2019-04-22T12:23:27.387Z,9.80
2019-04-22T12:26:32.545Z,6.62
2019-04-22T12:29:36.432Z,6.03
2019-04-22T12:32:41.171Z,7.72
2019-04-22T12:35:46.307Z,7.42
2019-04-22T12:38:51.377Z,4.35
2019-04-22T12:41:56.173Z,6.05
2019-04-22T12:45:00.450Z,6.62
2019-04-22T12:48:04.466Z,5.67
2019-04-22T12:51:09.220Z,11.08
2019-04-22T12:54:13.179Z,5.20
2019-04-22T12:57:17.001Z,8.25
2019-04-22T13:00:22.473Z,7.75
2019-04-22T13:03:26.453Z,9.53
2019-04-22T13:06:30.206Z,7.10
2019-04-22T13:09:33.848Z,5.60
2019-04-22T13:12:39.395Z,8.90
2019-04-22T13:15:44.511Z,3.42
2019-04-22T13:18:55.447Z,9.30
2019-04-22T13:21:54.608Z,4.90
2019-04-22T13:24:59.607Z,4.83
2019-04-22T13:28:04.900Z,10.13
2019-04-22T13:31:09.807Z,7.92
2019-04-22T13:34:24.364Z,6.03
2019-04-22T13:37:23.218Z,7.25
2019-04-22T13:40:30.794Z,3.90
2019-04-22T13:43:34.862Z,4.97
2019-04-22T13:46:41.097Z,10.43
2019-04-22T13:50:17.664Z,11.63
2019-04-22T13:53:33.721Z,7.85
2019-04-22T13:56:15.473Z,5.00
2019-04-22T13:59:11.317Z,5.35
2019-04-22T14:02:22.446Z,12.85
2019-04-22T14:05:26.965Z,5.12
2019-04-22T14:08:31.332Z,8.28
2019-04-22T14:11:44.136Z,10.78
2019-04-22T14:14:42.775Z,6.42
2019-04-22T14:17:47.118Z,9.58
2019-04-22T14:20:51.190Z,4.47
2019-04-22T14:23:56.314Z,5.67
2019-04-22T14:27:17.913Z,8.30
2019-04-22T14:30:08.458Z,3.85
2019-04-22T14:33:12.259Z,12.93
2019-04-22T14:36:17.143Z,10.98
2019-04-22T14:39:21.970Z,8.23
2019-04-22T14:42:45.654Z,9.65
2019-04-22T14:46:05.520Z,3.30
2019-04-22T14:49:01.380Z,12.68
2019-04-22T14:52:10.788Z,9.25
2019-04-22T14:54:59.856Z,10.82
2019-04-22T14:57:52.937Z,6.87
2019-04-22T15:00:56.934Z,9.93
2019-04-22T15:04:00.902Z,6.15
2019-04-22T15:07:05.297Z,4.85
2019-04-22T15:10:10.342Z,12.60
2019-04-22T15:13:17.747Z,7.25
2019-04-22T15:16:27.738Z,8.35
2019-04-22T15:19:33.846Z,5.37
2019-04-22T15:22:38.888Z,14.00
2019-04-22T15:25:44.259Z,10.15
2019-04-22T15:28:49.280Z,5.40
2019-04-22T15:31:53.507Z,6.25
2019-04-22T15:34:57.394Z,6.20
2019-04-22T15:38:04.571Z,6.53
2019-04-22T15:41:08.182Z,12.33
2019-04-22T15:44:12.062Z,6.40
2019-04-22T15:47:15.736Z,8.48
2019-04-22T15:50:19.531Z,2.67
2019-04-22T15:53:25.404Z,3.47
2019-04-22T15:56:28.665Z,4.80
2019-04-22T15:59:50.501Z,4.28
2019-04-22T16:02:39.366Z,7.20
2019-04-22T16:05:44.095Z,2.52
2019-04-22T16:08:48.023Z,7.35
2019-04-22T16:11:54.044Z,7.17
2019-04-22T16:14:59.686Z,6.28
2019-04-22T16:18:06.436Z,5.47
2019-04-22T16:21:13.100Z,7.92
2019-04-22T16:24:19.909Z,3.75
2019-04-22T16:27:27.177Z,6.65
2019-04-22T16:30:31.052Z,3.25
2019-04-22T16:33:39.309Z,10.13
2019-04-22T16:36:40.757Z,10.15
2019-04-22T16:39:46.490Z,10.78
2019-04-22T16:42:58.148Z,5.70
2019-04-22T16:45:55.863Z,14.75
2019-04-22T16:48:59.675Z,9.98
2019-04-22T16:52:03.887Z,12.25
2019-04-22T16:55:08.721Z,4.00
2019-04-22T16:58:12.750Z,11.73
2019-04-22T17:01:34.678Z,5.45
2019-04-22T17:04:40.883Z,3.30
2019-04-22T17:07:45.729Z,5.42
2019-04-22T17:10:51.669Z,12.23
2019-04-22T17:14:13.278Z,7.50
2019-04-22T17:17:19.937Z,5.40
2019-04-22T17:20:27.194Z,11.30
2019-04-22T17:23:31.732Z,9.60
2019-04-22T17:26:36.644Z,6.40
2019-04-22T17:29:41.062Z,8.03
2019-04-22T17:32:47.752Z,9.53
2019-04-22T17:35:50.436Z,6.10
2019-04-22T17:39:07.025Z,9.15
2019-04-22T17:42:22.185Z,8.40
2019-04-22T17:45:38.975Z,13.72
2019-04-22T17:48:57.610Z,5.90
2019-04-22T17:55:32.230Z,6.60
2019-04-22T17:58:34.748Z,6.65
2019-04-22T18:01:41.719Z,6.42
2019-04-22T18:04:29.037Z,9.48
2019-04-22T18:07:49.334Z,7.50
2019-04-22T18:10:58.496Z,8.38
2019-04-22T18:14:16.785Z,11.97
2019-04-22T18:17:10.970Z,10.45
2019-04-22T18:20:14.470Z,6.80
2019-04-22T18:23:10.235Z,7.03
2019-04-22T18:26:27.050Z,6.12
2019-04-22T18:29:34.462Z,7.83
2019-04-22T18:32:37.984Z,7.15
2019-04-22T18:35:42.027Z,4.37
2019-04-22T18:39:02.805Z,4.62
2019-04-22T18:41:51.817Z,15.40
2019-04-22T18:45:19.894Z,8.98
2019-04-22T18:48:11.268Z,5.35
2019-04-22T18:51:29.540Z,8.45
2019-04-22T18:54:31.127Z,9.65
2019-04-22T18:57:46.506Z,8.33
2019-04-22T19:00:43.969Z,4.87
2019-04-22T19:04:00.283Z,6.55
2019-04-22T19:07:28.669Z,8.60
2019-04-22T19:10:36.249Z,9.48
2019-04-22T19:19:49.830Z,6.42
2019-04-22T19:22:57.409Z,7.75
2019-04-22T19:25:55.679Z,9.40
2019-04-22T19:29:03.899Z,7.67
2019-04-22T19:32:07.044Z,8.63
2019-04-22T19:35:11.849Z,8.23
2019-04-22T19:38:09.565Z,6.25
2019-04-22T19:41:24.325Z,5.37
2019-04-22T19:44:25.994Z,8.85
2019-04-22T19:47:40.115Z,9.38
2019-04-22T19:50:50.401Z,8.43
2019-04-22T19:53:47.142Z,6.83
2019-04-22T19:56:40.366Z,10.10
2019-04-22T19:59:51.172Z,12.55
2019-04-22T20:03:18.605Z,7.87
2019-04-22T20:06:33.694Z,11.95
2019-04-22T20:09:49.306Z,7.28
2019-04-22T20:12:51.132Z,9.60
2019-04-22T20:15:48.975Z,11.28
2019-04-22T20:19:06.902Z,7.53
2019-04-22T20:22:02.912Z,10.68
2019-04-22T20:25:00.019Z,8.90
2019-04-22T20:28:19.946Z,9.85
2019-04-22T20:31:20.547Z,8.85
2019-04-22T20:34:24.071Z,10.60
2019-04-22T20:37:35.177Z,9.70
2019-04-22T20:40:40.081Z,10.28
2019-04-22T20:43:50.040Z,12.20
2019-04-22T20:46:44.742Z,15.83
2019-04-22T20:50:02.006Z,10.43
2019-04-22T20:53:08.559Z,11.12
2019-04-22T20:56:12.827Z,10.75
2019-04-22T20:59:12.579Z,14.78
2019-04-22T21:02:16.420Z,13.13
2019-04-22T21:05:24.823Z,12.55
2019-04-22T21:08:35.078Z,13.30
2019-04-22T21:11:53.609Z,15.18
2019-04-22T21:15:06.798Z,12.13
2019-04-22T21:18:15.080Z,18.05
2019-04-22T21:24:59.312Z,14.07
2019-04-22T21:28:05.050Z,16.95
2019-04-22T21:31:05.857Z,25.27
2019-04-22T21:34:10.329Z,13.58
2019-04-22T21:37:20.285Z,15.32
2019-04-22T21:40:25.809Z,17.65
2019-04-22T21:43:28.888Z,18.90
2019-04-22T21:46:33.478Z,19.27
2019-04-22T21:49:42.832Z,22.65
2019-04-22T21:52:54.531Z,15.83
2019-04-22T21:56:02.181Z,18.62
2019-04-22T21:59:05.158Z,20.90
2019-04-22T22:02:13.844Z,16.93
2019-04-22T22:05:11.206Z,18.73
2019-04-22T22:08:27.565Z,24.45
2019-04-22T22:11:28.850Z,17.23
2019-04-22T22:14:34.849Z,20.00
2019-04-22T22:17:36.601Z,18.62
2019-04-22T22:21:02.224Z,20.17
2019-04-22T22:23:55.934Z,20.43
2019-04-22T22:26:57.102Z,19.02
2019-04-22T22:33:05.683Z,19.95
2019-04-22T22:36:08.732Z,20.37
2019-04-22T22:39:13.259Z,22.20
2019-04-22T22:42:01.814Z,19.92
2019-04-22T22:45:19.842Z,21.87
2019-04-22T22:48:39.734Z,20.90
2019-04-22T22:51:49.446Z,18.20
2019-04-22T22:54:46.460Z,21.23
2019-04-22T22:57:50.243Z,19.40
2019-04-22T23:00:56.177Z,20.70
2019-04-22T23:04:09.923Z,21.57
2019-04-22T23:07:19.279Z,19.45
2019-04-22T23:10:19.058Z,21.80
2019-04-22T23:13:25.643Z,28.07
2019-04-22T23:16:19.373Z,24.72
2019-04-22T23:19:11.115Z,20.70
2019-04-22T23:22:23.499Z,23.07
2019-04-22T23:25:42.886Z,24.52
2019-04-22T23:28:45.961Z,21.48
2019-04-22T23:31:48.343Z,21.07
2019-04-22T23:35:10.418Z,22.82
2019-04-22T23:38:06.297Z,22.67
2019-04-22T23:44:42.248Z,22.87
2019-04-22T23:47:39.041Z,22.77
2019-04-22T23:50:50.925Z,22.10
2019-04-22T23:54:10.698Z,20.97
2019-04-22T23:56:56.969Z,24.82
